sensor_id;sensor_type;location;lat;lon;timestamp;pressure;altitude;pressure_sealevel;temperature;humidity
29839;BME280;18669;53.356;-1.464;2023-01-27T00:01:38;102274.31;;;5.72;100.00
29839;BME280;18669;53.356;-1.464;2023-01-27T00:04:04;102280.44;;;5.74;100.00
29839;BME280;18669;53.356;-1.464;2023-01-27T00:06:30;102274.47;;;5.78;100.00
29839;BME280;18669;53.356;-1.464;2023-01-27T00:08:56;102266.72;;;5.82;100.00
29839;BME280;18669;53.356;-1.464;2023-01-27T00:11:23;102272.56;;;5.72;100.00
29839;BME280;18669;53.356;-1.464;2023-01-27T00:14:08;102275.22;;;5.74;100.00
29839;BME280;18669;53.356;-1.464;2023-01-27T00:16:34;102272.63;;;5.75;100.00
29839;BME280;18669;53.356;-1.464;2023-01-27T00:19:01;102281.41;;;5.77;100.00
29839;BME280;18669;53.356;-1.464;2023-01-27T00:21:27;102277.06;;;5.78;100.00
29839;BME280;18669;53.356;-1.464;2023-01-27T00:24:12;102272.06;;;5.87;100.00
29839;BME280;18669;53.356;-1.464;2023-01-27T00:26:57;102267.75;;;5.89;100.00
29839;BME280;18669;53.356;-1.464;2023-01-27T00:29:23;102278.88;;;5.80;100.00
29839;BME280;18669;53.356;-1.464;2023-01-27T00:31:49;102278.94;;;5.83;100.00
29839;BME280;18669;53.356;-1.464;2023-01-27T00:34:33;102282.50;;;5.87;100.00
29839;BME280;18669;53.356;-1.464;2023-01-27T00:37:00;102273.72;;;5.83;100.00
29839;BME280;18669;53.356;-1.464;2023-01-27T00:39:26;102273.66;;;5.80;100.00
29839;BME280;18669;53.356;-1.464;2023-01-27T00:41:53;102276.94;;;5.73;100.00
29839;BME280;18669;53.356;-1.464;2023-01-27T00:44:20;102266.38;;;5.68;100.00
29839;BME280;18669;53.356;-1.464;2023-01-27T00:46:46;102275.91;;;5.66;100.00
29839;BME280;18669;53.356;-1.464;2023-01-27T00:49:12;102267.03;;;5.60;100.00
29839;BME280;18669;53.356;-1.464;2023-01-27T00:51:38;102284.31;;;5.56;100.00
29839;BME280;18669;53.356;-1.464;2023-01-27T00:54:04;102272.09;;;5.53;100.00
29839;BME280;18669;53.356;-1.464;2023-01-27T00:56:31;102280.03;;;5.58;100.00
29839;BME280;18669;53.356;-1.464;2023-01-27T00:58:57;102272.34;;;5.63;100.00
29839;BME280;18669;53.356;-1.464;2023-01-27T01:01:23;102260.88;;;5.58;100.00
29839;BME280;18669;53.356;-1.464;2023-01-27T01:03:49;102259.91;;;5.54;100.00
29839;BME280;18669;53.356;-1.464;2023-01-27T01:06:16;102258.50;;;5.67;100.00
29839;BME280;18669;53.356;-1.464;2023-01-27T01:08:43;102253.13;;;5.61;100.00
29839;BME280;18669;53.356;-1.464;2023-01-27T01:11:12;102257.03;;;5.77;100.00
29839;BME280;18669;53.356;-1.464;2023-01-27T01:13:40;102245.66;;;5.75;100.00
29839;BME280;18669;53.356;-1.464;2023-01-27T01:16:11;102241.31;;;5.75;100.00
29839;BME280;18669;53.356;-1.464;2023-01-27T01:18:37;102246.44;;;5.72;100.00
29839;BME280;18669;53.356;-1.464;2023-01-27T01:21:04;102242.03;;;5.70;100.00
29839;BME280;18669;53.356;-1.464;2023-01-27T01:23:32;102248.44;;;5.81;100.00
29839;BME280;18669;53.356;-1.464;2023-01-27T01:25:58;102244.84;;;5.77;100.00
29839;BME280;18669;53.356;-1.464;2023-01-27T01:28:25;102244.91;;;5.80;100.00
29839;BME280;18669;53.356;-1.464;2023-01-27T01:30:51;102246.53;;;5.75;100.00
29839;BME280;18669;53.356;-1.464;2023-01-27T01:33:17;102242.72;;;5.97;100.00
29839;BME280;18669;53.356;-1.464;2023-01-27T01:35:44;102244.09;;;5.83;100.00
29839;BME280;18669;53.356;-1.464;2023-01-27T01:38:10;102243.84;;;6.07;100.00
29839;BME280;18669;53.356;-1.464;2023-01-27T01:40:42;102238.53;;;6.03;100.00
29839;BME280;18669;53.356;-1.464;2023-01-27T01:43:13;102242.09;;;6.06;100.00
29839;BME280;18669;53.356;-1.464;2023-01-27T01:50:46;102236.03;;;6.07;100.00
29839;BME280;18669;53.356;-1.464;2023-01-27T01:53:13;102241.97;;;6.00;100.00
29839;BME280;18669;53.356;-1.464;2023-01-27T01:55:39;102244.78;;;6.09;100.00
29839;BME280;18669;53.356;-1.464;2023-01-27T01:58:08;102250.06;;;6.11;100.00
29839;BME280;18669;53.356;-1.464;2023-01-27T02:00:35;102246.41;;;6.04;100.00
29839;BME280;18669;53.356;-1.464;2023-01-27T02:03:01;102242.09;;;6.06;100.00
29839;BME280;18669;53.356;-1.464;2023-01-27T02:05:32;102244.94;;;6.16;100.00
29839;BME280;18669;53.356;-1.464;2023-01-27T02:08:15;102254.63;;;6.20;100.00
29839;BME280;18669;53.356;-1.464;2023-01-27T02:10:45;102257.75;;;6.05;100.00
29839;BME280;18669;53.356;-1.464;2023-01-27T02:13:11;102251.41;;;5.96;100.00
29839;BME280;18669;53.356;-1.464;2023-01-27T02:15:37;102242.63;;;5.93;100.00
29839;BME280;18669;53.356;-1.464;2023-01-27T02:18:03;102243.94;;;6.10;100.00
29839;BME280;18669;53.356;-1.464;2023-01-27T02:23:16;102256.84;;;6.04;100.00
29839;BME280;18669;53.356;-1.464;2023-01-27T02:28:20;102243.69;;;6.01;100.00
29839;BME280;18669;53.356;-1.464;2023-01-27T02:30:46;102244.63;;;6.03;100.00
29839;BME280;18669;53.356;-1.464;2023-01-27T02:33:14;102249.22;;;6.12;100.00
29839;BME280;18669;53.356;-1.464;2023-01-27T02:38:32;102246.31;;;6.01;100.00
29839;BME280;18669;53.356;-1.464;2023-01-27T02:41:10;102249.91;;;6.05;100.00
29839;BME280;18669;53.356;-1.464;2023-01-27T02:43:36;102243.56;;;5.96;100.00
29839;BME280;18669;53.356;-1.464;2023-01-27T02:46:02;102247.09;;;5.98;100.00
29839;BME280;18669;53.356;-1.464;2023-01-27T02:48:29;102245.44;;;6.01;100.00
29839;BME280;18669;53.356;-1.464;2023-01-27T02:50:56;102247.53;;;6.16;100.00
29839;BME280;18669;53.356;-1.464;2023-01-27T02:53:22;102245.44;;;6.01;100.00
29839;BME280;18669;53.356;-1.464;2023-01-27T02:55:48;102237.56;;;5.99;100.00
29839;BME280;18669;53.356;-1.464;2023-01-27T02:58:14;102228.09;;;6.03;100.00
29839;BME280;18669;53.356;-1.464;2023-01-27T03:00:42;102221.97;;;6.02;100.00
29839;BME280;18669;53.356;-1.464;2023-01-27T03:03:09;102224.44;;;5.97;100.00
29839;BME280;18669;53.356;-1.464;2023-01-27T03:05:35;102228.81;;;5.98;100.00
29839;BME280;18669;53.356;-1.464;2023-01-27T03:08:01;102228.75;;;5.95;100.00
29839;BME280;18669;53.356;-1.464;2023-01-27T03:10:27;102225.34;;;5.98;100.00
29839;BME280;18669;53.356;-1.464;2023-01-27T03:12:53;102219.97;;;5.92;100.00
29839;BME280;18669;53.356;-1.464;2023-01-27T03:15:19;102218.88;;;5.83;100.00
29839;BME280;18669;53.356;-1.464;2023-01-27T03:18:09;102224.44;;;5.97;100.00
29839;BME280;18669;53.356;-1.464;2023-01-27T03:20:39;102221.56;;;5.87;100.00
29839;BME280;18669;53.356;-1.464;2023-01-27T03:23:05;102224.13;;;5.85;100.00
29839;BME280;18669;53.356;-1.464;2023-01-27T03:25:31;102232.56;;;6.08;100.00
29839;BME280;18669;53.356;-1.464;2023-01-27T03:27:58;102226.97;;;5.94;100.00
29839;BME280;18669;53.356;-1.464;2023-01-27T03:30:28;102217.44;;;5.96;100.00
29839;BME280;18669;53.356;-1.464;2023-01-27T03:32:54;102226.94;;;5.93;100.00
29839;BME280;18669;53.356;-1.464;2023-01-27T03:35:20;102225.28;;;5.96;100.00
29839;BME280;18669;53.356;-1.464;2023-01-27T03:37:48;102228.91;;;6.00;100.00
29839;BME280;18669;53.356;-1.464;2023-01-27T03:40:33;102227.03;;;5.96;100.00
29839;BME280;18669;53.356;-1.464;2023-01-27T03:43:23;102221.66;;;5.91;100.00
29839;BME280;18669;53.356;-1.464;2023-01-27T03:46:07;102231.94;;;5.83;100.00
29839;BME280;18669;53.356;-1.464;2023-01-27T03:48:40;102218.88;;;5.83;100.00
29839;BME280;18669;53.356;-1.464;2023-01-27T03:51:06;102226.50;;;6.09;100.00
29839;BME280;18669;53.356;-1.464;2023-01-27T03:53:33;102225.06;;;5.87;100.00
29839;BME280;18669;53.356;-1.464;2023-01-27T03:56:01;102234.72;;;5.91;100.00
29839;BME280;18669;53.356;-1.464;2023-01-27T03:58:34;102231.44;;;5.98;100.00
29839;BME280;18669;53.356;-1.464;2023-01-27T04:01:10;102240.25;;;6.02;100.00
29839;BME280;18669;53.356;-1.464;2023-01-27T04:03:38;102242.72;;;5.97;100.00
29839;BME280;18669;53.356;-1.464;2023-01-27T04:06:28;102234.88;;;5.97;100.00
29839;BME280;18669;53.356;-1.464;2023-01-27T04:09:33;102232.56;;;6.08;100.00
29839;BME280;18669;53.356;-1.464;2023-01-27T04:12:05;102237.56;;;5.99;100.00
29839;BME280;18669;53.356;-1.464;2023-01-27T04:14:33;102227.94;;;5.98;100.00
29839;BME280;18669;53.356;-1.464;2023-01-27T04:17:04;102231.69;;;6.08;100.00
29839;BME280;18669;53.356;-1.464;2023-01-27T04:19:32;102228.03;;;6.01;100.00
29839;BME280;18669;53.356;-1.464;2023-01-27T04:21:59;102229.00;;;6.05;100.00
29839;BME280;18669;53.356;-1.464;2023-01-27T04:24:26;102220.03;;;5.95;100.00
29839;BME280;18669;53.356;-1.464;2023-01-27T04:29:52;102231.03;;;5.83;100.00
29839;BME280;18669;53.356;-1.464;2023-01-27T04:32:18;102227.91;;;5.96;100.00
29839;BME280;18669;53.356;-1.464;2023-01-27T04:34:44;102224.09;;;5.83;100.00
29839;BME280;18669;53.356;-1.464;2023-01-27T04:37:10;102226.91;;;5.91;100.00
29839;BME280;18669;53.356;-1.464;2023-01-27T04:39:36;102227.09;;;5.99;100.00
29839;BME280;18669;53.356;-1.464;2023-01-27T04:42:03;102221.75;;;5.94;100.00
29839;BME280;18669;53.356;-1.464;2023-01-27T04:44:30;102213.72;;;5.87;100.00
29839;BME280;18669;53.356;-1.464;2023-01-27T04:47:10;102215.88;;;6.02;100.00
29839;BME280;18669;53.356;-1.464;2023-01-27T04:49:36;102225.19;;;5.92;100.00
29839;BME280;18669;53.356;-1.464;2023-01-27T04:52:05;102221.81;;;5.96;100.00
29839;BME280;18669;53.356;-1.464;2023-01-27T04:54:34;102222.03;;;6.05;100.00
29839;BME280;18669;53.356;-1.464;2023-01-27T04:57:00;102223.69;;;6.02;100.00
29839;BME280;18669;53.356;-1.464;2023-01-27T04:59:28;102219.81;;;5.87;100.00
29839;BME280;18669;53.356;-1.464;2023-01-27T05:01:54;102216.50;;;5.93;100.00
29839;BME280;18669;53.356;-1.464;2023-01-27T05:04:20;102213.75;;;5.88;100.00
29839;BME280;18669;53.356;-1.464;2023-01-27T05:06:46;102215.53;;;5.89;100.00
29839;BME280;18669;53.356;-1.464;2023-01-27T05:09:13;102213.00;;;5.92;100.00
29839;BME280;18669;53.356;-1.464;2023-01-27T05:11:39;102205.84;;;5.85;100.00
29839;BME280;18669;53.356;-1.464;2023-01-27T05:14:05;102211.22;;;5.91;100.00
29839;BME280;18669;53.356;-1.464;2023-01-27T05:16:31;102213.75;;;5.88;100.00
29839;BME280;18669;53.356;-1.464;2023-01-27T05:18:57;102216.56;;;5.96;100.00
29839;BME280;18669;53.356;-1.464;2023-01-27T05:21:25;102215.03;;;6.03;100.00
29839;BME280;18669;53.356;-1.464;2023-01-27T05:23:55;102220.13;;;6.00;100.00
29839;BME280;18669;53.356;-1.464;2023-01-27T05:26:25;102221.97;;;6.02;100.00
29839;BME280;18669;53.356;-1.464;2023-01-27T05:28:53;102217.09;;;5.81;100.00
29839;BME280;18669;53.356;-1.464;2023-01-27T05:31:25;102215.44;;;5.86;100.00
29839;BME280;18669;53.356;-1.464;2023-01-27T05:33:52;102218.03;;;5.85;100.00
29839;BME280;18669;53.356;-1.464;2023-01-27T05:36:20;102221.56;;;5.87;100.00
29839;BME280;18669;53.356;-1.464;2023-01-27T05:38:48;102216.16;;;5.79;100.00
29839;BME280;18669;53.356;-1.464;2023-01-27T05:41:16;102221.50;;;5.83;100.00
29839;BME280;18669;53.356;-1.464;2023-01-27T05:43:45;102226.03;;;5.91;100.00
29839;BME280;18669;53.356;-1.464;2023-01-27T05:46:12;102225.78;;;5.81;100.00
29839;BME280;18669;53.356;-1.464;2023-01-27T05:48:41;102224.09;;;5.83;100.00
29839;BME280;18669;53.356;-1.464;2023-01-27T05:51:08;102224.00;;;5.79;100.00
29839;BME280;18669;53.356;-1.464;2023-01-27T05:53:35;102227.38;;;5.75;100.00
29839;BME280;18669;53.356;-1.464;2023-01-27T05:56:02;102227.63;;;5.86;100.00
29839;BME280;18669;53.356;-1.464;2023-01-27T05:58:28;102234.66;;;5.88;100.00
29839;BME280;18669;53.356;-1.464;2023-01-27T06:00:56;102221.56;;;5.87;100.00
29839;BME280;18669;53.356;-1.464;2023-01-27T06:03:30;102226.03;;;5.91;100.00
29839;BME280;18669;53.356;-1.464;2023-01-27T06:05:56;102227.72;;;5.89;100.00
29839;BME280;18669;53.356;-1.464;2023-01-27T06:08:23;102231.63;;;6.06;100.00
29839;BME280;18669;53.356;-1.464;2023-01-27T06:10:50;102233.88;;;5.91;100.00
29839;BME280;18669;53.356;-1.464;2023-01-27T06:13:16;102236.50;;;5.92;100.00
29839;BME280;18669;53.356;-1.464;2023-01-27T06:15:44;102233.03;;;5.93;100.00
29839;BME280;18669;53.356;-1.464;2023-01-27T06:18:11;102231.13;;;5.86;100.00
29839;BME280;18669;53.356;-1.464;2023-01-27T06:20:38;102237.84;;;5.76;100.00
29839;BME280;18669;53.356;-1.464;2023-01-27T06:23:06;102244.69;;;5.71;100.00
29839;BME280;18669;53.356;-1.464;2023-01-27T06:25:37;102240.38;;;5.73;100.00
29839;BME280;18669;53.356;-1.464;2023-01-27T06:28:05;102244.47;;;5.62;100.00
29839;BME280;18669;53.356;-1.464;2023-01-27T06:30:33;102235.81;;;5.64;100.00
29839;BME280;18669;53.356;-1.464;2023-01-27T06:33:02;102234.78;;;5.58;100.00
29839;BME280;18669;53.356;-1.464;2023-01-27T06:35:29;102225.19;;;5.57;100.00
29839;BME280;18669;53.356;-1.464;2023-01-27T06:37:57;102234.00;;;5.62;100.00
29839;BME280;18669;53.356;-1.464;2023-01-27T06:40:28;102237.69;;;5.70;100.00
29839;BME280;18669;53.356;-1.464;2023-01-27T06:42:55;102231.44;;;5.63;100.00
29839;BME280;18669;53.356;-1.464;2023-01-27T06:45:21;102232.00;;;5.87;100.00
29839;BME280;18669;53.356;-1.464;2023-01-27T06:47:58;102239.66;;;5.79;100.00
29839;BME280;18669;53.356;-1.464;2023-01-27T06:50:26;102237.69;;;5.70;100.00
29839;BME280;18669;53.356;-1.464;2023-01-27T06:53:01;102242.91;;;5.70;100.00
29839;BME280;18669;53.356;-1.464;2023-01-27T06:55:28;102242.78;;;5.64;100.00
29839;BME280;18669;53.356;-1.464;2023-01-27T06:57:55;102242.72;;;5.62;100.00
29839;BME280;18669;53.356;-1.464;2023-01-27T07:00:21;102243.56;;;5.61;100.00
29839;BME280;18669;53.356;-1.464;2023-01-27T07:02:47;102246.22;;;5.63;100.00
29839;BME280;18669;53.356;-1.464;2023-01-27T07:05:14;102237.91;;;5.44;100.00
29839;BME280;18669;53.356;-1.464;2023-01-27T07:07:40;102238.66;;;5.40;100.00
29839;BME280;18669;53.356;-1.464;2023-01-27T07:10:07;102237.72;;;5.38;100.00
29839;BME280;18669;53.356;-1.464;2023-01-27T07:12:34;102241.25;;;5.38;100.00
29839;BME280;18669;53.356;-1.464;2023-01-27T07:15:07;102242.38;;;5.50;100.00
29839;BME280;18669;53.356;-1.464;2023-01-27T07:17:34;102245.78;;;5.46;100.00
29839;BME280;18669;53.356;-1.464;2023-01-27T07:20:01;102244.03;;;5.45;100.00
29839;BME280;18669;53.356;-1.464;2023-01-27T07:22:28;102242.28;;;5.45;100.00
29839;BME280;18669;53.356;-1.464;2023-01-27T07:24:54;102242.44;;;5.51;100.00
29839;BME280;18669;53.356;-1.464;2023-01-27T07:27:23;102246.16;;;5.60;100.00
29839;BME280;18669;53.356;-1.464;2023-01-27T07:29:50;102239.94;;;5.56;100.00
29839;BME280;18669;53.356;-1.464;2023-01-27T07:32:17;102254.75;;;5.57;100.00
29839;BME280;18669;53.356;-1.464;2023-01-27T07:34:42;102262.25;;;5.77;100.00
29839;BME280;18669;53.356;-1.464;2023-01-27T07:37:08;102257.50;;;5.62;100.00
29839;BME280;18669;53.356;-1.464;2023-01-27T07:39:38;102258.63;;;5.72;100.00
29839;BME280;18669;53.356;-1.464;2023-01-27T07:42:05;102256.59;;;5.60;100.00
29839;BME280;18669;53.356;-1.464;2023-01-27T07:44:31;102265.28;;;5.60;100.00
29839;BME280;18669;53.356;-1.464;2023-01-27T07:46:58;102257.50;;;5.62;100.00
29839;BME280;18669;53.356;-1.464;2023-01-27T07:49:24;102258.50;;;5.67;100.00
29839;BME280;18669;53.356;-1.464;2023-01-27T07:51:51;102268.03;;;5.65;100.00
29839;BME280;18669;53.356;-1.464;2023-01-27T07:54:17;102263.59;;;5.62;100.00
29839;BME280;18669;53.356;-1.464;2023-01-27T07:56:44;102267.06;;;5.61;100.00
29839;BME280;18669;53.356;-1.464;2023-01-27T07:59:10;102273.25;;;5.65;100.00
29839;BME280;18669;53.356;-1.464;2023-01-27T08:01:38;102266.38;;;5.68;100.00
29839;BME280;18669;53.356;-1.464;2023-01-27T08:04:06;102268.16;;;5.70;100.00
29839;BME280;18669;53.356;-1.464;2023-01-27T08:06:32;102270.66;;;5.65;100.00
29839;BME280;18669;53.356;-1.464;2023-01-27T08:08:58;102275.06;;;5.67;100.00
29839;BME280;18669;53.356;-1.464;2023-01-27T08:11:26;102267.06;;;5.61;100.00
29839;BME280;18669;53.356;-1.464;2023-01-27T08:13:52;102277.50;;;5.61;100.00
29839;BME280;18669;53.356;-1.464;2023-01-27T08:16:18;102278.50;;;5.65;100.00
29839;BME280;18669;53.356;-1.464;2023-01-27T08:18:44;102282.00;;;5.67;100.00
29839;BME280;18669;53.356;-1.464;2023-01-27T08:21:11;102280.16;;;5.63;100.00
29839;BME280;18669;53.356;-1.464;2023-01-27T08:23:37;102293.22;;;5.63;100.00
29839;BME280;18669;53.356;-1.464;2023-01-27T08:26:04;102296.19;;;5.77;100.00
29839;BME280;18669;53.356;-1.464;2023-01-27T08:28:30;102292.75;;;5.78;100.00
29839;BME280;18669;53.356;-1.464;2023-01-27T08:31:07;102298.06;;;5.81;100.00
29839;BME280;18669;53.356;-1.464;2023-01-27T08:33:33;102298.94;;;5.83;100.00
29839;BME280;18669;53.356;-1.464;2023-01-27T08:36:09;102304.31;;;5.88;100.00
29839;BME280;18669;53.356;-1.464;2023-01-27T08:38:36;102311.31;;;5.90;100.00
29839;BME280;18669;53.356;-1.464;2023-01-27T08:41:03;102305.25;;;5.90;100.00
29839;BME280;18669;53.356;-1.464;2023-01-27T08:43:28;102304.34;;;5.89;100.00
29839;BME280;18669;53.356;-1.464;2023-01-27T08:45:54;102314.00;;;5.92;100.00
29839;BME280;18669;53.356;-1.464;2023-01-27T08:48:21;102316.69;;;5.95;100.00
29839;BME280;18669;53.356;-1.464;2023-01-27T08:50:47;102316.72;;;5.96;100.00
29839;BME280;18669;53.356;-1.464;2023-01-27T08:53:14;102322.13;;;6.03;100.00
29839;BME280;18669;53.356;-1.464;2023-01-27T08:55:40;102317.66;;;5.98;100.00
29839;BME280;18669;53.356;-1.464;2023-01-27T08:58:06;102316.78;;;5.98;100.00
29839;BME280;18669;53.356;-1.464;2023-01-27T09:00:32;102320.41;;;6.03;100.00
29839;BME280;18669;53.356;-1.464;2023-01-27T09:02:58;102324.69;;;6.01;100.00
29839;BME280;18669;53.356;-1.464;2023-01-27T09:05:24;102323.81;;;6.01;100.00
29839;BME280;18669;53.356;-1.464;2023-01-27T09:07:50;102327.31;;;6.01;100.00
29839;BME280;18669;53.356;-1.464;2023-01-27T09:10:16;102322.25;;;6.07;100.00
29839;BME280;18669;53.356;-1.464;2023-01-27T09:12:42;102325.91;;;6.14;100.00
29839;BME280;18669;53.356;-1.464;2023-01-27T09:15:10;102325.88;;;6.12;100.00
29839;BME280;18669;53.356;-1.464;2023-01-27T09:17:36;102333.88;;;6.20;100.00
29839;BME280;18669;53.356;-1.464;2023-01-27T09:20:02;102336.66;;;6.26;100.00
29839;BME280;18669;53.356;-1.464;2023-01-27T09:22:28;102336.81;;;6.33;100.00
29839;BME280;18669;53.356;-1.464;2023-01-27T09:24:54;102331.59;;;6.33;100.00
29839;BME280;18669;53.356;-1.464;2023-01-27T09:27:19;102333.34;;;6.34;100.00
29839;BME280;18669;53.356;-1.464;2023-01-27T09:29:46;102335.16;;;6.36;100.00
29839;BME280;18669;53.356;-1.464;2023-01-27T09:32:12;102339.59;;;6.40;100.00
29839;BME280;18669;53.356;-1.464;2023-01-27T09:34:38;102342.19;;;6.39;100.00
29839;BME280;18669;53.356;-1.464;2023-01-27T09:37:06;102330.06;;;6.42;100.00
29839;BME280;18669;53.356;-1.464;2023-01-27T09:39:34;102330.06;;;6.41;100.00
29839;BME280;18669;53.356;-1.464;2023-01-27T10:05:00;102333.59;;;6.81;100.00
29839;BME280;18669;53.356;-1.464;2023-01-27T10:07:45;102335.31;;;6.79;100.00
29839;BME280;18669;53.356;-1.464;2023-01-27T10:10:39;102334.75;;;6.94;100.00
29839;BME280;18669;53.356;-1.464;2023-01-27T10:15:53;102331.88;;;7.68;100.00
29839;BME280;18669;53.356;-1.464;2023-01-27T10:21:26;102320.97;;;8.46;100.00
29839;BME280;18669;53.356;-1.464;2023-01-27T10:26:22;102330.06;;;8.13;100.00
29839;BME280;18669;53.356;-1.464;2023-01-27T10:28:49;102337.69;;;7.99;100.00
29839;BME280;18669;53.356;-1.464;2023-01-27T10:31:24;102327.69;;;7.78;100.00
29839;BME280;18669;53.356;-1.464;2023-01-27T10:33:55;102327.34;;;7.59;100.00
29839;BME280;18669;53.356;-1.464;2023-01-27T10:41:34;102321.66;;;7.36;100.00
29839;BME280;18669;53.356;-1.464;2023-01-27T10:51:49;102325.88;;;7.29;100.00
29839;BME280;18669;53.356;-1.464;2023-01-27T10:56:55;102316.94;;;7.18;100.00
29839;BME280;18669;53.356;-1.464;2023-01-27T10:59:34;102321.66;;;7.36;100.00
29839;BME280;18669;53.356;-1.464;2023-01-27T11:02:12;102319.06;;;7.37;100.00
29839;BME280;18669;53.356;-1.464;2023-01-27T11:04:40;102321.28;;;7.61;100.00
29839;BME280;18669;53.356;-1.464;2023-01-27T11:07:08;102316.25;;;7.72;100.00
29839;BME280;18669;53.356;-1.464;2023-01-27T11:10:02;102319.03;;;7.83;100.00
29839;BME280;18669;53.356;-1.464;2023-01-27T11:12:39;102313.19;;;7.97;100.00
29839;BME280;18669;53.356;-1.464;2023-01-27T11:22:52;102313.09;;;8.44;100.00
29839;BME280;18669;53.356;-1.464;2023-01-27T11:25:31;102321.78;;;8.42;100.00
29839;BME280;18669;53.356;-1.464;2023-01-27T11:28:03;102312.09;;;8.38;100.00
29839;BME280;18669;53.356;-1.464;2023-01-27T11:30:38;102306.69;;;8.27;100.00
29839;BME280;18669;53.356;-1.464;2023-01-27T11:33:15;102305.06;;;8.36;100.00
29839;BME280;18669;53.356;-1.464;2023-01-27T11:35:43;102301.50;;;8.31;100.00
29839;BME280;18669;53.356;-1.464;2023-01-27T11:38:17;102288.97;;;8.13;100.00
29839;BME280;18669;53.356;-1.464;2023-01-27T11:40:44;102283.09;;;8.27;100.00
29839;BME280;18669;53.356;-1.464;2023-01-27T11:43:22;102281.53;;;8.38;100.00
29839;BME280;18669;53.356;-1.464;2023-01-27T11:45:51;102286.94;;;8.49;100.00
29839;BME280;18669;53.356;-1.464;2023-01-27T11:48:19;102275.59;;;8.51;100.00
29839;BME280;18669;53.356;-1.464;2023-01-27T11:50:45;102272.63;;;8.30;100.00
29839;BME280;18669;53.356;-1.464;2023-01-27T11:53:13;102272.31;;;8.08;100.00
29839;BME280;18669;53.356;-1.464;2023-01-27T11:55:42;102268.78;;;8.07;100.00
29839;BME280;18669;53.356;-1.464;2023-01-27T11:58:12;102266.56;;;8.32;100.00
29839;BME280;18669;53.356;-1.464;2023-01-27T12:00:44;102264.97;;;8.44;100.00
29839;BME280;18669;53.356;-1.464;2023-01-27T12:05:58;102253.72;;;8.49;100.00
29839;BME280;18669;53.356;-1.464;2023-01-27T12:08:39;102255.78;;;8.72;100.00
29839;BME280;18669;53.356;-1.464;2023-01-27T12:11:19;102254.91;;;8.70;100.00
29839;BME280;18669;53.356;-1.464;2023-01-27T12:13:53;102247.94;;;8.72;100.00
29839;BME280;18669;53.356;-1.464;2023-01-27T12:16:19;102242.75;;;8.78;100.00
29839;BME280;18669;53.356;-1.464;2023-01-27T12:18:46;102246.22;;;8.76;100.00
29839;BME280;18669;53.356;-1.464;2023-01-27T12:21:14;102234.94;;;8.83;100.00
29839;BME280;18669;53.356;-1.464;2023-01-27T12:23:47;102232.34;;;8.88;100.00
29839;BME280;18669;53.356;-1.464;2023-01-27T12:26:14;102240.28;;;8.91;100.00
29839;BME280;18669;53.356;-1.464;2023-01-27T12:28:42;102231.66;;;9.00;100.00
29839;BME280;18669;53.356;-1.464;2023-01-27T12:31:25;102231.88;;;9.23;100.00
29839;BME280;18669;53.356;-1.464;2023-01-27T12:33:58;102223.81;;;9.06;100.00
29839;BME280;18669;53.356;-1.464;2023-01-27T12:36:26;102221.34;;;9.18;100.00
29839;BME280;18669;53.356;-1.464;2023-01-27T12:38:53;102221.28;;;9.12;100.00
29839;BME280;18669;53.356;-1.464;2023-01-27T12:41:27;102222.00;;;8.99;100.00
29839;BME280;18669;53.356;-1.464;2023-01-27T12:46:21;102222.78;;;8.27;100.00
29839;BME280;18669;53.356;-1.464;2023-01-27T12:48:48;102220.88;;;8.16;100.00
29839;BME280;18669;53.356;-1.464;2023-01-27T12:51:16;102217.44;;;8.19;100.00
29839;BME280;18669;53.356;-1.464;2023-01-27T12:53:42;102223.44;;;8.13;100.00
29839;BME280;18669;53.356;-1.464;2023-01-27T12:58:44;102222.41;;;8.02;100.00
29839;BME280;18669;53.356;-1.464;2023-01-27T13:01:26;102220.53;;;7.95;100.00
29839;BME280;18669;53.356;-1.464;2023-01-27T13:03:55;102209.84;;;7.82;100.00
29839;BME280;18669;53.356;-1.464;2023-01-27T13:06:29;102214.91;;;7.71;100.00
29839;BME280;18669;53.356;-1.464;2023-01-27T13:08:57;102212.25;;;7.68;100.00
29839;BME280;18669;53.356;-1.464;2023-01-27T13:11:34;102213.09;;;7.67;100.00
29839;BME280;18669;53.356;-1.464;2023-01-27T13:14:02;102220.88;;;7.63;100.00
29839;BME280;18669;53.356;-1.464;2023-01-27T13:16:28;102212.28;;;7.70;100.00
29839;BME280;18669;53.356;-1.464;2023-01-27T13:18:58;102208.81;;;7.71;100.00
29839;BME280;18669;53.356;-1.464;2023-01-27T13:21:28;102197.56;;;7.78;100.00
29839;BME280;18669;53.356;-1.464;2023-01-27T13:23:57;102195.09;;;7.87;100.00
29839;BME280;18669;53.356;-1.464;2023-01-27T13:26:25;102195.28;;;8.00;100.00
29839;BME280;18669;53.356;-1.464;2023-01-27T13:36:22;102188.38;;;8.05;100.00
29839;BME280;18669;53.356;-1.464;2023-01-27T13:39:03;102179.66;;;8.06;100.00
29839;BME280;18669;53.356;-1.464;2023-01-27T13:41:34;102182.34;;;8.11;100.00
29839;BME280;18669;53.356;-1.464;2023-01-27T13:44:07;102175.38;;;8.14;100.00
29839;BME280;18669;53.356;-1.464;2023-01-27T13:46:37;102176.19;;;8.09;100.00
29839;BME280;18669;53.356;-1.464;2023-01-27T13:49:11;102171.72;;;8.01;100.00
29839;BME280;18669;53.356;-1.464;2023-01-27T13:51:39;102176.16;;;8.05;100.00
29839;BME280;18669;53.356;-1.464;2023-01-27T13:54:05;102170.16;;;8.14;100.00
29839;BME280;18669;53.356;-1.464;2023-01-27T14:14:47;102168.69;;;8.35;100.00
29839;BME280;18669;53.356;-1.464;2023-01-27T14:28:24;102167.66;;;8.24;100.00
29839;BME280;18669;53.356;-1.464;2023-01-27T14:30:41;102171.22;;;8.27;100.00
29839;BME280;18669;53.356;-1.464;2023-01-27T14:38:08;102164.03;;;8.14;100.00
29839;BME280;18669;53.356;-1.464;2023-01-27T14:40:51;102165.66;;;8.05;100.00
29839;BME280;18669;53.356;-1.464;2023-01-27T14:43:25;102169.88;;;7.96;100.00
29839;BME280;18669;53.356;-1.464;2023-01-27T14:45:55;102168.03;;;7.88;100.00
29839;BME280;18669;53.356;-1.464;2023-01-27T15:01:37;102171.00;;;7.56;100.00
29839;BME280;18669;53.356;-1.464;2023-01-27T15:07:05;102171.75;;;7.49;100.00